sensor_id;sensor_type;location;lat;lon;timestamp;pressure;altitude;pressure_sealevel;temperature;humidity
55032;BME280;40928;51.076;7.950;2023-03-16T00:00:11;97331.75;;;-2.19;100.00
55032;BME280;40928;51.076;7.950;2023-03-16T00:02:41;97341.06;;;-2.16;100.00
55032;BME280;40928;51.076;7.950;2023-03-16T00:05:08;97342.72;;;-2.15;100.00
55032;BME280;40928;51.076;7.950;2023-03-16T00:07:34;97341.41;;;-2.19;100.00
55032;BME280;40928;51.076;7.950;2023-03-16T00:10:00;97339.44;;;-2.17;100.00
55032;BME280;40928;51.076;7.950;2023-03-16T00:12:26;97342.88;;;-2.17;100.00
55032;BME280;40928;51.076;7.950;2023-03-16T00:14:51;97334.56;;;-2.12;100.00
55032;BME280;40928;51.076;7.950;2023-03-16T00:17:19;97340.03;;;-2.05;100.00
55032;BME280;40928;51.076;7.950;2023-03-16T00:19:50;97341.38;;;-2.01;100.00
55032;BME280;40928;51.076;7.950;2023-03-16T00:22:20;97337.13;;;-2.02;100.00
55032;BME280;40928;51.076;7.950;2023-03-16T00:24:47;97339.56;;;-2.01;100.00
55032;BME280;40928;51.076;7.950;2023-03-16T00:27:13;97339.72;;;-2.02;100.00
55032;BME280;40928;51.076;7.950;2023-03-16T00:29:44;97330.91;;;-2.01;100.00
55032;BME280;40928;51.076;7.950;2023-03-16T00:32:20;97323.88;;;-2.01;100.00
55032;BME280;40928;51.076;7.950;2023-03-16T00:34:47;97318.78;;;-2.02;100.00
55032;BME280;40928;51.076;7.950;2023-03-16T00:37:14;97324.25;;;-1.95;100.00
55032;BME280;40928;51.076;7.950;2023-03-16T00:39:41;97325.72;;;-1.93;100.00
55032;BME280;40928;51.076;7.950;2023-03-16T00:42:12;97324.63;;;-1.90;100.00
55032;BME280;40928;51.076;7.950;2023-03-16T00:44:39;97322.97;;;-1.91;100.00
55032;BME280;40928;51.076;7.950;2023-03-16T00:47:06;97336.72;;;-1.89;100.00
55032;BME280;40928;51.076;7.950;2023-03-16T00:49:34;97326.25;;;-1.89;100.00
55032;BME280;40928;51.076;7.950;2023-03-16T00:52:04;97324.63;;;-1.90;100.00
55032;BME280;40928;51.076;7.950;2023-03-16T00:54:33;97327.06;;;-1.89;100.00
55032;BME280;40928;51.076;7.950;2023-03-16T00:56:59;97331.50;;;-1.89;100.00
55032;BME280;40928;51.076;7.950;2023-03-16T00:59:26;97328.56;;;-1.86;100.00
55032;BME280;40928;51.076;7.950;2023-03-16T01:01:52;97342.47;;;-1.86;100.00
55032;BME280;40928;51.076;7.950;2023-03-16T01:04:18;97340.66;;;-1.85;100.00
55032;BME280;40928;51.076;7.950;2023-03-16T01:06:45;97324.66;;;-1.82;100.00
55032;BME280;40928;51.076;7.950;2023-03-16T01:09:12;97312.41;;;-1.81;100.00
55032;BME280;40928;51.076;7.950;2023-03-16T01:11:39;97322.78;;;-1.72;100.00
55032;BME280;40928;51.076;7.950;2023-03-16T01:14:08;97323.44;;;-1.70;100.00
55032;BME280;40928;51.076;7.950;2023-03-16T01:16:34;97319.91;;;-1.60;100.00
55032;BME280;40928;51.076;7.950;2023-03-16T01:19:00;97322.88;;;-1.55;100.00
55032;BME280;40928;51.076;7.950;2023-03-16T01:21:26;97322.09;;;-1.47;100.00
55032;BME280;40928;51.076;7.950;2023-03-16T01:23:54;97313.44;;;-1.48;100.00
55032;BME280;40928;51.076;7.950;2023-03-16T01:26:23;97321.31;;;-1.40;100.00
55032;BME280;40928;51.076;7.950;2023-03-16T01:28:52;97321.84;;;-1.36;100.00
55032;BME280;40928;51.076;7.950;2023-03-16T01:31:22;97319.91;;;-1.34;100.00
55032;BME280;40928;51.076;7.950;2023-03-16T01:33:50;97319.06;;;-1.34;100.00
55032;BME280;40928;51.076;7.950;2023-03-16T01:36:20;97316.31;;;-1.33;100.00
55032;BME280;40928;51.076;7.950;2023-03-16T01:38:57;97315.53;;;-1.25;100.00
55032;BME280;40928;51.076;7.950;2023-03-16T01:41:25;97313.78;;;-1.08;100.00
55032;BME280;40928;51.076;7.950;2023-03-16T01:43:52;97304.78;;;-1.05;100.00
55032;BME280;40928;51.076;7.950;2023-03-16T01:46:28;97299.59;;;-0.97;100.00
55032;BME280;40928;51.076;7.950;2023-03-16T01:49:17;97291.72;;;-0.89;100.00
55032;BME280;40928;51.076;7.950;2023-03-16T01:52:02;97290.94;;;-0.81;100.00
55032;BME280;40928;51.076;7.950;2023-03-16T01:54:47;97288.66;;;-0.76;100.00
55032;BME280;40928;51.076;7.950;2023-03-16T01:57:30;97287.19;;;-0.70;98.98
55032;BME280;40928;51.076;7.950;2023-03-16T02:00:12;97279.50;;;-0.64;97.61
55032;BME280;40928;51.076;7.950;2023-03-16T02:03:15;97267.22;;;-0.55;95.76
55032;BME280;40928;51.076;7.950;2023-03-16T02:06:01;97270.34;;;-0.51;95.78
55032;BME280;40928;51.076;7.950;2023-03-16T02:08:35;97265.44;;;-0.46;95.58
55032;BME280;40928;51.076;7.950;2023-03-16T02:11:02;97247.56;;;-0.51;95.40
55032;BME280;40928;51.076;7.950;2023-03-16T02:13:48;97267.72;;;-0.35;94.24
55032;BME280;40928;51.076;7.950;2023-03-16T02:16:25;97259.88;;;-0.35;93.83
55032;BME280;40928;51.076;7.950;2023-03-16T02:18:56;97260.69;;;-0.26;92.71
55032;BME280;40928;51.076;7.950;2023-03-16T02:21:26;97249.38;;;-0.26;92.98
55032;BME280;40928;51.076;7.950;2023-03-16T02:24:00;97245.41;;;-0.22;92.30
55032;BME280;40928;51.076;7.950;2023-03-16T02:32:02;97245.59;;;-0.24;91.91
55032;BME280;40928;51.076;7.950;2023-03-16T02:34:30;97237.56;;;-0.31;92.11
55032;BME280;40928;51.076;7.950;2023-03-16T02:36:57;97245.25;;;-0.29;92.36
55032;BME280;40928;51.076;7.950;2023-03-16T02:39:25;97233.13;;;-0.30;91.89
55032;BME280;40928;51.076;7.950;2023-03-16T02:41:51;97236.72;;;-0.31;91.67
55032;BME280;40928;51.076;7.950;2023-03-16T02:44:24;97245.63;;;-0.32;92.06
55032;BME280;40928;51.076;7.950;2023-03-16T02:46:57;97256.44;;;-0.35;91.83
55032;BME280;40928;51.076;7.950;2023-03-16T02:49:37;97260.03;;;-0.36;91.87
55032;BME280;40928;51.076;7.950;2023-03-16T02:52:05;97253.94;;;-0.37;91.86
55032;BME280;40928;51.076;7.950;2023-03-16T02:54:31;97246.09;;;-0.37;91.42
55032;BME280;40928;51.076;7.950;2023-03-16T02:56:56;97238.38;;;-0.38;91.79
55032;BME280;40928;51.076;7.950;2023-03-16T02:59:23;97238.38;;;-0.38;91.71
55032;BME280;40928;51.076;7.950;2023-03-16T03:01:49;97232.16;;;-0.37;91.72
55032;BME280;40928;51.076;7.950;2023-03-16T03:04:16;97218.38;;;-0.39;90.97
55032;BME280;40928;51.076;7.950;2023-03-16T03:06:41;97225.94;;;-0.36;90.67
55032;BME280;40928;51.076;7.950;2023-03-16T03:09:07;97229.22;;;-0.34;90.69
55032;BME280;40928;51.076;7.950;2023-03-16T03:11:36;97224.09;;;-0.36;90.30
55032;BME280;40928;51.076;7.950;2023-03-16T03:14:02;97238.22;;;-0.37;90.30
55032;BME280;40928;51.076;7.950;2023-03-16T03:16:29;97225.59;;;-0.33;90.00
55032;BME280;40928;51.076;7.950;2023-03-16T03:18:57;97220.97;;;-0.31;90.33
55032;BME280;40928;51.076;7.950;2023-03-16T03:21:23;97213.94;;;-0.31;90.99
55032;BME280;40928;51.076;7.950;2023-03-16T03:23:49;97221.16;;;-0.33;90.80
55032;BME280;40928;51.076;7.950;2023-03-16T03:26:15;97219.69;;;-0.35;90.26
55032;BME280;40928;51.076;7.950;2023-03-16T03:28:42;97222.00;;;-0.32;89.09
55032;BME280;40928;51.076;7.950;2023-03-16T03:31:15;97212.47;;;-0.33;89.79
55032;BME280;40928;51.076;7.950;2023-03-16T03:33:42;97220.97;;;-0.31;89.99
55032;BME280;40928;51.076;7.950;2023-03-16T03:36:08;97223.59;;;-0.31;89.39
55032;BME280;40928;51.076;7.950;2023-03-16T03:38:36;97224.63;;;-0.32;89.33
55032;BME280;40928;51.076;7.950;2023-03-16T03:41:04;97222.81;;;-0.32;89.12
55032;BME280;40928;51.076;7.950;2023-03-16T03:43:35;97218.34;;;-0.31;88.74
55032;BME280;40928;51.076;7.950;2023-03-16T03:46:02;97216.91;;;-0.34;88.76
55032;BME280;40928;51.076;7.950;2023-03-16T03:48:30;97209.84;;;-0.33;88.69
55032;BME280;40928;51.076;7.950;2023-03-16T03:50:59;97203.63;;;-0.32;89.10
55032;BME280;40928;51.076;7.950;2023-03-16T03:53:28;97198.88;;;-0.28;89.63
55032;BME280;40928;51.076;7.950;2023-03-16T03:56:10;97196.06;;;-0.27;88.95
55032;BME280;40928;51.076;7.950;2023-03-16T03:58:37;97198.84;;;-0.20;88.13
55032;BME280;40928;51.076;7.950;2023-03-16T04:01:06;97187.53;;;-0.21;88.53
55032;BME280;40928;51.076;7.950;2023-03-16T04:03:32;97188.50;;;-0.13;87.18
55032;BME280;40928;51.076;7.950;2023-03-16T04:05:58;97195.09;;;-0.18;87.77
55032;BME280;40928;51.076;7.950;2023-03-16T04:08:24;97203.25;;;-0.12;88.29
55032;BME280;40928;51.076;7.950;2023-03-16T04:10:50;97200.47;;;-0.11;87.92
55032;BME280;40928;51.076;7.950;2023-03-16T04:13:18;97202.94;;;-0.09;87.86
55032;BME280;40928;51.076;7.950;2023-03-16T04:15:43;97197.88;;;-0.11;86.47
55032;BME280;40928;51.076;7.950;2023-03-16T04:18:23;97186.53;;;-0.03;86.43
55032;BME280;40928;51.076;7.950;2023-03-16T04:20:50;97190.63;;;-0.01;86.83
55032;BME280;40928;51.076;7.950;2023-03-16T04:23:20;97191.09;;;0.11;84.53
55032;BME280;40928;51.076;7.950;2023-03-16T04:25:47;97184.19;;;0.02;84.89
55032;BME280;40928;51.076;7.950;2023-03-16T04:28:16;97193.72;;;0.11;84.81
55032;BME280;40928;51.076;7.950;2023-03-16T04:30:44;97189.13;;;0.05;85.25
55032;BME280;40928;51.076;7.950;2023-03-16T04:33:16;97185.69;;;0.05;85.07
55032;BME280;40928;51.076;7.950;2023-03-16T04:35:43;97182.22;;;0.04;85.35
55032;BME280;40928;51.076;7.950;2023-03-16T04:38:12;97176.97;;;0.04;85.20
55032;BME280;40928;51.076;7.950;2023-03-16T04:40:47;97182.22;;;0.04;84.30
55032;BME280;40928;51.076;7.950;2023-03-16T04:43:17;97176.97;;;0.04;84.35
55032;BME280;40928;51.076;7.950;2023-03-16T04:45:44;97168.94;;;0.06;84.89
55032;BME280;40928;51.076;7.950;2023-03-16T04:48:10;97180.59;;;0.03;84.66
55032;BME280;40928;51.076;7.950;2023-03-16T04:50:36;97180.59;;;0.03;84.98
55032;BME280;40928;51.076;7.950;2023-03-16T04:53:02;97175.34;;;0.03;85.11
55032;BME280;40928;51.076;7.950;2023-03-16T04:55:32;97178.16;;;0.02;85.06
55032;BME280;40928;51.076;7.950;2023-03-16T04:57:59;97173.53;;;0.04;84.62
55032;BME280;40928;51.076;7.950;2023-03-16T05:00:30;97172.25;;;-0.01;85.38
55032;BME280;40928;51.076;7.950;2023-03-16T05:03:12;97167.00;;;-0.01;86.38
55032;BME280;40928;51.076;7.950;2023-03-16T05:05:39;97158.94;;;0.01;85.89
55032;BME280;40928;51.076;7.950;2023-03-16T05:08:08;97156.97;;;0.03;85.59
55032;BME280;40928;51.076;7.950;2023-03-16T05:10:38;97155.31;;;0.02;85.69
55032;BME280;40928;51.076;7.950;2023-03-16T05:13:05;97154.84;;;-0.02;85.94
55032;BME280;40928;51.076;7.950;2023-03-16T05:15:31;97158.44;;;0.06;85.47
55032;BME280;40928;51.076;7.950;2023-03-16T05:18:15;97165.19;;;0.00;85.91
55032;BME280;40928;51.076;7.950;2023-03-16T05:20:41;97176.03;;;-0.03;86.11
55032;BME280;40928;51.076;7.950;2023-03-16T05:23:07;97169.47;;;-0.07;86.22
55032;BME280;40928;51.076;7.950;2023-03-16T05:25:40;97175.38;;;-0.05;86.16
55032;BME280;40928;51.076;7.950;2023-03-16T05:28:11;97168.31;;;-0.05;86.59
55032;BME280;40928;51.076;7.950;2023-03-16T05:30:48;97170.94;;;-0.05;85.30
55032;BME280;40928;51.076;7.950;2023-03-16T05:33:20;97172.09;;;-0.07;85.28
55032;BME280;40928;51.076;7.950;2023-03-16T05:35:50;97167.66;;;-0.07;84.28
55032;BME280;40928;51.076;7.950;2023-03-16T05:38:16;97164.88;;;-0.13;85.60
55032;BME280;40928;51.076;7.950;2023-03-16T05:40:44;97170.16;;;-0.22;85.93
55032;BME280;40928;51.076;7.950;2023-03-16T05:43:23;97171.63;;;-0.11;85.00
55032;BME280;40928;51.076;7.950;2023-03-16T05:45:52;97181.94;;;-0.09;84.76
55032;BME280;40928;51.076;7.950;2023-03-16T05:48:18;97165.84;;;-0.06;84.47
55032;BME280;40928;51.076;7.950;2023-03-16T05:50:51;97164.19;;;0.01;83.13
55032;BME280;40928;51.076;7.950;2023-03-16T05:53:20;97160.75;;;0.01;83.44
55032;BME280;40928;51.076;7.950;2023-03-16T05:55:55;97154.50;;;0.02;83.18
55032;BME280;40928;51.076;7.950;2023-03-16T05:58:23;97157.31;;;0.00;83.86
55032;BME280;40928;51.076;7.950;2023-03-16T06:00:50;97176.66;;;0.07;82.94
55032;BME280;40928;51.076;7.950;2023-03-16T06:03:23;97168.13;;;0.05;82.65
55032;BME280;40928;51.076;7.950;2023-03-16T06:05:51;97163.53;;;0.07;82.22
55032;BME280;40928;51.076;7.950;2023-03-16T06:08:24;97171.88;;;0.11;82.23
55032;BME280;40928;51.076;7.950;2023-03-16T06:10:52;97166.47;;;0.12;81.69
55032;BME280;40928;51.076;7.950;2023-03-16T06:13:19;97174.16;;;0.14;81.67
55032;BME280;40928;51.076;7.950;2023-03-16T06:15:44;97157.25;;;0.17;81.59
55032;BME280;40928;51.076;7.950;2023-03-16T06:18:12;97165.63;;;0.20;81.52
55032;BME280;40928;51.076;7.950;2023-03-16T06:20:38;97147.25;;;0.12;81.57
55032;BME280;40928;51.076;7.950;2023-03-16T06:23:03;97170.19;;;0.26;80.81
55032;BME280;40928;51.076;7.950;2023-03-16T06:25:30;97163.59;;;0.30;80.53
55032;BME280;40928;51.076;7.950;2023-03-16T06:27:56;97170.63;;;0.38;79.73
55032;BME280;40928;51.076;7.950;2023-03-16T06:30:23;97170.31;;;0.41;79.73
55032;BME280;40928;51.076;7.950;2023-03-16T06:32:49;97160.91;;;0.47;80.28
55032;BME280;40928;51.076;7.950;2023-03-16T06:35:15;97165.66;;;0.52;79.95
55032;BME280;40928;51.076;7.950;2023-03-16T06:37:48;97173.03;;;0.56;79.84
55032;BME280;40928;51.076;7.950;2023-03-16T06:40:36;97170.38;;;0.56;80.86
55032;BME280;40928;51.076;7.950;2023-03-16T06:43:02;97183.72;;;0.55;81.06
55032;BME280;40928;51.076;7.950;2023-03-16T06:45:28;97168.91;;;0.62;80.26
55032;BME280;40928;51.076;7.950;2023-03-16T06:47:55;97181.03;;;0.63;80.54
55032;BME280;40928;51.076;7.950;2023-03-16T06:50:21;97175.94;;;0.70;80.26
55032;BME280;40928;51.076;7.950;2023-03-16T06:52:46;97182.34;;;0.67;80.72
55032;BME280;40928;51.076;7.950;2023-03-16T06:55:12;97177.53;;;0.79;80.13
55032;BME280;40928;51.076;7.950;2023-03-16T06:57:42;97172.78;;;0.74;81.31
55032;BME280;40928;51.076;7.950;2023-03-16T07:00:12;97172.06;;;0.81;81.47
55032;BME280;40928;51.076;7.950;2023-03-16T07:02:40;97175.00;;;0.86;81.29
55032;BME280;40928;51.076;7.950;2023-03-16T07:05:07;97175.13;;;0.93;81.31
55032;BME280;40928;51.076;7.950;2023-03-16T07:07:35;97170.34;;;0.96;81.79
55032;BME280;40928;51.076;7.950;2023-03-16T07:10:01;97173.84;;;1.12;80.87
55032;BME280;40928;51.076;7.950;2023-03-16T07:12:26;97175.50;;;1.13;81.49
55032;BME280;40928;51.076;7.950;2023-03-16T07:14:52;97185.78;;;1.23;81.28
55032;BME280;40928;51.076;7.950;2023-03-16T07:17:21;97182.06;;;1.17;81.39
55032;BME280;40928;51.076;7.950;2023-03-16T07:19:46;97184.69;;;1.17;81.36
55032;BME280;40928;51.076;7.950;2023-03-16T07:22:12;97181.72;;;1.20;81.72
55032;BME280;40928;51.076;7.950;2023-03-16T07:24:39;97183.00;;;1.24;81.23
55032;BME280;40928;51.076;7.950;2023-03-16T07:27:06;97169.09;;;1.15;82.79
55032;BME280;40928;51.076;7.950;2023-03-16T07:29:32;97190.38;;;1.29;82.67
55032;BME280;40928;51.076;7.950;2023-03-16T07:32:00;97189.38;;;1.30;82.17
55032;BME280;40928;51.076;7.950;2023-03-16T07:34:34;97188.00;;;1.34;82.64
55032;BME280;40928;51.076;7.950;2023-03-16T07:37:00;97186.84;;;1.36;82.65
55032;BME280;40928;51.076;7.950;2023-03-16T07:39:29;97186.25;;;1.49;82.53
55032;BME280;40928;51.076;7.950;2023-03-16T07:42:03;97182.47;;;1.52;82.72
55032;BME280;40928;51.076;7.950;2023-03-16T07:44:56;97181.09;;;1.56;82.48
55032;BME280;40928;51.076;7.950;2023-03-16T07:47:22;97188.28;;;1.62;81.89
55032;BME280;40928;51.076;7.950;2023-03-16T07:49:50;97190.91;;;1.62;81.69
55032;BME280;40928;51.076;7.950;2023-03-16T07:52:16;97189.13;;;1.63;82.18
55032;BME280;40928;51.076;7.950;2023-03-16T07:54:43;97190.34;;;1.52;82.63
55032;BME280;40928;51.076;7.950;2023-03-16T07:57:10;97192.16;;;1.51;82.58
55032;BME280;40928;51.076;7.950;2023-03-16T07:59:41;97184.44;;;1.50;83.40
55032;BME280;40928;51.076;7.950;2023-03-16T08:02:14;97195.28;;;1.55;83.42
55032;BME280;40928;51.076;7.950;2023-03-16T08:04:41;97181.94;;;1.57;82.82
55032;BME280;40928;51.076;7.950;2023-03-16T08:07:08;97188.28;;;1.62;83.37
55032;BME280;40928;51.076;7.950;2023-03-16T08:09:48;97178.50;;;1.71;82.33
55032;BME280;40928;51.076;7.950;2023-03-16T08:12:19;97172.66;;;1.84;81.99
55032;BME280;40928;51.076;7.950;2023-03-16T08:14:45;97183.63;;;1.88;82.79
55032;BME280;40928;51.076;7.950;2023-03-16T08:17:16;97188.44;;;1.99;82.40
55032;BME280;40928;51.076;7.950;2023-03-16T08:19:44;97186.66;;;2.15;81.34
55032;BME280;40928;51.076;7.950;2023-03-16T08:22:10;97178.38;;;2.18;81.55
55032;BME280;40928;51.076;7.950;2023-03-16T08:24:39;97178.28;;;2.41;79.94
55032;BME280;40928;51.076;7.950;2023-03-16T08:27:08;97188.63;;;2.57;80.50
55032;BME280;40928;51.076;7.950;2023-03-16T08:29:37;97172.53;;;2.67;78.96
55032;BME280;40928;51.076;7.950;2023-03-16T08:32:04;97177.41;;;2.85;77.71
55032;BME280;40928;51.076;7.950;2023-03-16T08:34:37;97182.59;;;3.15;77.13
55032;BME280;40928;51.076;7.950;2023-03-16T08:37:04;97170.88;;;3.18;74.29
55032;BME280;40928;51.076;7.950;2023-03-16T08:39:31;97180.78;;;3.16;74.86
55032;BME280;40928;51.076;7.950;2023-03-16T08:41:59;97166.69;;;3.09;74.75
55032;BME280;40928;51.076;7.950;2023-03-16T08:44:35;97175.69;;;3.14;75.12
55032;BME280;40928;51.076;7.950;2023-03-16T08:47:02;97172.75;;;3.24;74.98
55032;BME280;40928;51.076;7.950;2023-03-16T08:49:29;97164.00;;;3.24;74.90
55032;BME280;40928;51.076;7.950;2023-03-16T08:52:02;97160.59;;;3.30;74.55
55032;BME280;40928;51.076;7.950;2023-03-16T08:54:29;97151.94;;;3.36;74.71
55032;BME280;40928;51.076;7.950;2023-03-16T08:56:56;97157.06;;;3.44;75.41
55032;BME280;40928;51.076;7.950;2023-03-16T08:59:22;97159.66;;;3.38;72.82
55032;BME280;40928;51.076;7.950;2023-03-16T09:01:48;97156.91;;;3.24;74.74
55032;BME280;40928;51.076;7.950;2023-03-16T09:04:14;97153.16;;;3.33;74.14
55032;BME280;40928;51.076;7.950;2023-03-16T09:06:39;97143.88;;;3.44;73.03
55032;BME280;40928;51.076;7.950;2023-03-16T09:09:06;97152.69;;;3.52;73.47
55032;BME280;40928;51.076;7.950;2023-03-16T09:11:34;97147.31;;;3.66;72.45
55032;BME280;40928;51.076;7.950;2023-03-16T09:14:00;97149.72;;;3.61;72.78
55032;BME280;40928;51.076;7.950;2023-03-16T09:16:26;97149.78;;;3.68;72.45
55032;BME280;40928;51.076;7.950;2023-03-16T09:18:52;97148.44;;;3.79;71.91
55032;BME280;40928;51.076;7.950;2023-03-16T09:21:20;97150.53;;;3.90;70.88
55032;BME280;40928;51.076;7.950;2023-03-16T09:23:46;97151.50;;;3.83;70.85
55032;BME280;40928;51.076;7.950;2023-03-16T09:26:12;97159.72;;;3.94;70.06
55032;BME280;40928;51.076;7.950;2023-03-16T09:28:38;97141.88;;;4.03;70.47
55032;BME280;40928;51.076;7.950;2023-03-16T09:31:06;97151.25;;;4.06;69.31
55032;BME280;40928;51.076;7.950;2023-03-16T09:33:33;97151.91;;;4.15;70.05
55032;BME280;40928;51.076;7.950;2023-03-16T09:36:00;97147.97;;;4.04;69.18
55032;BME280;40928;51.076;7.950;2023-03-16T09:38:27;97167.34;;;3.83;69.17
55032;BME280;40928;51.076;7.950;2023-03-16T09:44:09;97154.72;;;3.78;70.63
55032;BME280;40928;51.076;7.950;2023-03-16T09:46:45;97164.66;;;3.76;71.67
55032;BME280;40928;51.076;7.950;2023-03-16T09:49:16;97162.78;;;3.70;71.48
55032;BME280;40928;51.076;7.950;2023-03-16T09:51:51;97162.72;;;3.63;70.68
55032;BME280;40928;51.076;7.950;2023-03-16T09:54:25;97154.63;;;3.64;71.29
55032;BME280;40928;51.076;7.950;2023-03-16T09:56:53;97158.69;;;3.67;71.96
55032;BME280;40928;51.076;7.950;2023-03-16T09:59:19;97166.88;;;3.72;71.78
55032;BME280;40928;51.076;7.950;2023-03-16T10:07:48;97158.13;;;3.72;71.52
55032;BME280;40928;51.076;7.950;2023-03-16T10:16:21;97161.69;;;4.21;71.08
55032;BME280;40928;51.076;7.950;2023-03-16T10:18:49;97164.09;;;4.51;70.41
55032;BME280;40928;51.076;7.950;2023-03-16T10:21:18;97164.81;;;4.73;69.29
55032;BME280;40928;51.076;7.950;2023-03-16T10:23:46;97159.63;;;5.07;68.43
55032;BME280;40928;51.076;7.950;2023-03-16T10:26:27;97160.88;;;5.31;65.95
55032;BME280;40928;51.076;7.950;2023-03-16T10:28:56;97157.22;;;5.79;65.81
55032;BME280;40928;51.076;7.950;2023-03-16T10:31:22;97157.16;;;6.46;63.46
55032;BME280;40928;51.076;7.950;2023-03-16T10:33:50;97152.72;;;6.79;62.28
55032;BME280;40928;51.076;7.950;2023-03-16T10:36:26;97151.28;;;7.22;61.35
55032;BME280;40928;51.076;7.950;2023-03-16T10:38:58;97149.75;;;7.39;58.70
55032;BME280;40928;51.076;7.950;2023-03-16T10:41:36;97148.94;;;7.89;58.05
55032;BME280;40928;51.076;7.950;2023-03-16T10:44:09;97142.41;;;8.29;57.29
55032;BME280;40928;51.076;7.950;2023-03-16T10:46:43;97139.59;;;8.98;56.19
55032;BME280;40928;51.076;7.950;2023-03-16T10:49:39;97139.94;;;9.02;52.69
55032;BME280;40928;51.076;7.950;2023-03-16T10:52:45;97117.75;;;9.86;52.73
55032;BME280;40928;51.076;7.950;2023-03-16T10:55:21;97128.13;;;10.71;51.47
55032;BME280;40928;51.076;7.950;2023-03-16T10:57:52;97132.44;;;11.01;49.09
55032;BME280;40928;51.076;7.950;2023-03-16T11:00:34;97147.59;;;11.12;46.48
55032;BME280;40928;51.076;7.950;2023-03-16T11:03:01;97138.56;;;11.02;45.52
55032;BME280;40928;51.076;7.950;2023-03-16T11:05:36;97141.94;;;10.68;47.44
55032;BME280;40928;51.076;7.950;2023-03-16T11:08:19;97136.59;;;11.26;46.92
55032;BME280;40928;51.076;7.950;2023-03-16T11:10:57;97124.53;;;10.65;46.87
55032;BME280;40928;51.076;7.950;2023-03-16T11:13:33;97134.53;;;10.99;46.77
55032;BME280;40928;51.076;7.950;2023-03-16T11:16:24;97138.13;;;10.93;47.59
55032;BME280;40928;51.076;7.950;2023-03-16T11:19:40;97137.22;;;9.99;48.00
55032;BME280;40928;51.076;7.950;2023-03-16T11:21:47;97128.41;;;9.63;48.86
55032;BME280;40928;51.076;7.950;2023-03-16T11:24:24;97122.56;;;9.42;50.87
55032;BME280;40928;51.076;7.950;2023-03-16T11:26:56;97114.84;;;9.10;51.97
55032;BME280;40928;51.076;7.950;2023-03-16T11:29:27;97120.66;;;8.88;51.62
55032;BME280;40928;51.076;7.950;2023-03-16T11:32:00;97103.84;;;8.38;52.82
55032;BME280;40928;51.076;7.950;2023-03-16T11:34:30;97118.19;;;8.37;53.35
55032;BME280;40928;51.076;7.950;2023-03-16T11:53:05;97079.81;;;6.88;58.20
55032;BME280;40928;51.076;7.950;2023-03-16T11:58:32;97079.66;;;6.76;58.49
55032;BME280;40928;51.076;7.950;2023-03-16T12:04:27;97064.41;;;6.65;60.35
55032;BME280;40928;51.076;7.950;2023-03-16T12:15:23;97053.19;;;7.71;58.98
55032;BME280;40928;51.076;7.950;2023-03-16T12:17:54;97039.72;;;7.91;57.22
55032;BME280;40928;51.076;7.950;2023-03-16T12:20:28;97046.66;;;7.92;56.83
55032;BME280;40928;51.076;7.950;2023-03-16T12:23:07;97059.56;;;7.88;57.09
55032;BME280;40928;51.076;7.950;2023-03-16T12:25:36;97055.81;;;7.77;56.56
55032;BME280;40928;51.076;7.950;2023-03-16T12:28:11;97055.34;;;7.81;57.96
55032;BME280;40928;51.076;7.950;2023-03-16T12:34:01;97047.75;;;8.21;56.29
55032;BME280;40928;51.076;7.950;2023-03-16T12:36:49;97030.44;;;9.82;53.43
55032;BME280;40928;51.076;7.950;2023-03-16T12:45:42;97033.72;;;14.04;41.08
55032;BME280;40928;51.076;7.950;2023-03-16T12:50:47;96999.63;;;15.51;39.58
55032;BME280;40928;51.076;7.950;2023-03-16T12:53:43;97001.28;;;16.33;37.28
55032;BME280;40928;51.076;7.950;2023-03-16T12:56:12;96999.63;;;15.15;36.48
55032;BME280;40928;51.076;7.950;2023-03-16T12:58:42;96983.25;;;14.01;39.57
55032;BME280;40928;51.076;7.950;2023-03-16T13:01:11;96984.09;;;14.17;40.19
55032;BME280;40928;51.076;7.950;2023-03-16T13:03:38;96983.88;;;14.34;39.52
55032;BME280;40928;51.076;7.950;2023-03-16T13:06:05;96997.59;;;13.74;40.33
55032;BME280;40928;51.076;7.950;2023-03-16T13:08:41;96984.22;;;12.76;42.07
55032;BME280;40928;51.076;7.950;2023-03-16T13:11:10;96978.28;;;12.42;42.17
55032;BME280;40928;51.076;7.950;2023-03-16T13:16:25;96972.09;;;13.34;42.40
55032;BME280;40928;51.076;7.950;2023-03-16T13:18:51;96970.00;;;12.21;42.79
55032;BME280;40928;51.076;7.950;2023-03-16T13:21:20;96968.94;;;11.78;45.67
55032;BME280;40928;51.076;7.950;2023-03-16T13:23:51;96963.28;;;11.74;46.50
55032;BME280;40928;51.076;7.950;2023-03-16T13:26:45;96950.09;;;11.90;46.52
55032;BME280;40928;51.076;7.950;2023-03-16T13:29:32;96951.78;;;11.00;47.83
55032;BME280;40928;51.076;7.950;2023-03-16T13:32:00;96966.09;;;10.77;48.08
55032;BME280;40928;51.076;7.950;2023-03-16T13:34:29;96962.88;;;10.17;50.28
55032;BME280;40928;51.076;7.950;2023-03-16T13:36:57;96968.41;;;9.74;50.19
55032;BME280;40928;51.076;7.950;2023-03-16T13:39:28;96965.78;;;9.27;51.62
55032;BME280;40928;51.076;7.950;2023-03-16T13:42:08;96949.31;;;8.94;54.17
55032;BME280;40928;51.076;7.950;2023-03-16T13:44:40;96940.66;;;8.87;54.39
55032;BME280;40928;51.076;7.950;2023-03-16T13:47:06;96927.41;;;8.68;55.38
55032;BME280;40928;51.076;7.950;2023-03-16T13:49:33;96923.03;;;8.74;56.04
55032;BME280;40928;51.076;7.950;2023-03-16T13:52:13;96918.63;;;8.80;56.10
55032;BME280;40928;51.076;7.950;2023-03-16T13:54:43;96913.53;;;8.90;55.76
55032;BME280;40928;51.076;7.950;2023-03-16T13:57:10;96915.16;;;8.91;55.40
55032;BME280;40928;51.076;7.950;2023-03-16T13:59:37;96907.38;;;8.78;56.21
55032;BME280;40928;51.076;7.950;2023-03-16T14:02:02;96921.53;;;8.90;55.98
55032;BME280;40928;51.076;7.950;2023-03-16T14:04:31;96912.84;;;9.19;55.83
55032;BME280;40928;51.076;7.950;2023-03-16T14:07:00;96920.59;;;9.44;54.62
55032;BME280;40928;51.076;7.950;2023-03-16T14:09:34;96906.16;;;9.69;54.09
55032;BME280;40928;51.076;7.950;2023-03-16T14:12:00;96919.63;;;9.62;54.09
55032;BME280;40928;51.076;7.950;2023-03-16T14:14:30;96905.31;;;10.67;53.49
55032;BME280;40928;51.076;7.950;2023-03-16T14:17:01;96879.50;;;10.56;52.15
55032;BME280;40928;51.076;7.950;2023-03-16T14:19:29;96897.38;;;10.89;51.32
55032;BME280;40928;51.076;7.950;2023-03-16T14:22:02;96894.63;;;10.84;50.73
55032;BME280;40928;51.076;7.950;2023-03-16T14:24:35;96891.06;;;10.95;50.23
55032;BME280;40928;51.076;7.950;2023-03-16T14:29:43;96881.75;;;10.64;51.45